createdAt,value
2019-04-05T00:01:32.195Z,1.00
2019-04-05T00:04:02.568Z,1.00
2019-04-05T00:06:31.624Z,1.00
2019-04-05T00:09:00.498Z,7.80
2019-04-05T00:11:29.345Z,17.30
2019-04-05T00:13:58.134Z,24.00
2019-04-05T00:16:27.153Z,58.00
2019-04-05T00:18:55.984Z,49.40
2019-04-05T00:21:24.742Z,50.10
2019-04-05T00:23:53.530Z,56.00
2019-04-05T00:26:22.314Z,63.30
2019-04-05T00:28:51.880Z,71.70
2019-04-05T00:31:20.802Z,78.60
2019-04-05T00:33:49.550Z,91.00
2019-04-05T00:36:18.357Z,94.90
2019-04-05T00:38:47.109Z,99.00
2019-04-05T00:41:15.872Z,99.90
2019-04-05T00:43:44.690Z,99.90
2019-04-05T00:46:13.500Z,99.90
2019-04-05T00:48:42.290Z,99.90
2019-04-05T00:51:11.128Z,99.90
2019-04-05T00:53:39.872Z,99.90
2019-04-05T00:56:08.663Z,99.90
2019-04-05T00:58:37.748Z,99.90
2019-04-05T01:01:06.528Z,99.90
2019-04-05T01:03:35.325Z,99.90
2019-04-05T01:06:04.422Z,99.90
2019-04-05T01:08:33.208Z,99.90
2019-04-05T01:11:01.957Z,99.90
2019-04-05T01:13:30.726Z,99.90
2019-04-05T01:15:59.472Z,99.90
2019-04-05T01:18:28.232Z,99.90
2019-04-05T01:20:59.831Z,99.90
2019-04-05T01:23:28.954Z,99.90
2019-04-05T01:26:00.686Z,99.90
2019-04-05T01:28:29.653Z,99.90
2019-04-05T01:30:58.439Z,99.90
2019-04-05T01:33:27.189Z,99.90
2019-04-05T01:35:55.951Z,99.90
2019-04-05T01:38:24.732Z,99.90
2019-04-05T01:40:55.664Z,99.90
2019-04-05T01:43:24.626Z,99.90
2019-04-05T01:45:54.377Z,1.00
2019-04-05T01:48:23.204Z,1.00
2019-04-05T01:50:51.998Z,1.00
2019-04-05T01:53:20.930Z,1.00
2019-04-05T01:55:49.682Z,1.00
2019-04-05T01:58:18.440Z,1.00
2019-04-05T02:00:47.230Z,1.00
2019-04-05T02:03:16.316Z,1.00
2019-04-05T02:05:45.048Z,1.00
2019-04-05T02:08:13.806Z,1.00
2019-04-05T02:10:42.552Z,1.00
2019-04-05T02:13:11.333Z,1.00
2019-04-05T02:15:40.113Z,1.00
2019-04-05T02:18:09.101Z,1.00
2019-04-05T02:20:37.928Z,1.00
2019-04-05T02:23:06.718Z,1.00
2019-04-05T02:25:35.491Z,1.00
2019-04-05T02:28:04.258Z,1.00
2019-04-05T02:30:33.113Z,1.00
2019-04-05T02:33:01.854Z,1.00
2019-04-05T02:35:30.611Z,1.00
2019-04-05T02:37:59.404Z,1.00
2019-04-05T02:40:29.570Z,1.00
2019-04-05T02:43:01.480Z,1.00
2019-04-05T02:45:32.410Z,1.00
2019-04-05T02:48:04.331Z,1.00
2019-04-05T02:50:36.463Z,1.00
2019-04-05T02:53:07.855Z,1.00
2019-04-05T02:55:37.749Z,1.00
2019-04-05T02:58:06.554Z,1.00
2019-04-05T03:00:35.679Z,1.00
2019-04-05T03:03:05.715Z,1.00
2019-04-05T03:05:35.992Z,1.00
2019-04-05T03:08:05.488Z,1.00
2019-04-05T03:10:56.616Z,1.00
2019-04-05T03:13:28.689Z,1.00
2019-04-05T03:16:00.564Z,6.00
2019-04-05T03:18:30.734Z,48.20
2019-04-05T03:21:02.637Z,99.90
2019-04-05T03:23:33.995Z,99.90
2019-04-05T03:26:05.129Z,99.90
2019-04-05T03:28:35.988Z,99.90
2019-04-05T03:31:05.379Z,99.90
2019-04-05T03:33:34.896Z,99.90
2019-04-05T03:36:03.877Z,99.90
2019-04-05T03:38:32.709Z,99.90
2019-04-05T03:41:01.736Z,99.90
2019-04-05T03:43:30.572Z,99.90
2019-04-05T03:45:59.321Z,99.90
2019-04-05T03:48:28.189Z,1.00
2019-04-05T03:50:57.370Z,1.00
2019-04-05T03:53:26.398Z,1.00
2019-04-05T03:55:56.048Z,1.00
2019-04-05T03:58:24.874Z,1.00
2019-04-05T04:00:54.053Z,99.90
2019-04-05T04:03:22.808Z,1.00
2019-04-05T04:05:51.704Z,1.00
2019-04-05T04:08:23.451Z,93.80
2019-04-05T04:10:52.562Z,99.90
2019-04-05T04:13:21.453Z,99.90
2019-04-05T04:15:50.755Z,99.90
2019-04-05T04:18:19.878Z,99.90
2019-04-05T04:20:51.089Z,99.90
2019-04-05T04:23:23.206Z,99.90
2019-04-05T04:25:52.060Z,99.90
2019-04-05T04:28:20.947Z,99.90
2019-04-05T04:30:50.122Z,1.00
2019-04-05T04:33:19.027Z,1.00
2019-04-05T04:35:48.003Z,99.90
2019-04-05T04:38:17.410Z,99.90
2019-04-05T04:40:46.612Z,99.90
2019-04-05T04:43:15.790Z,1.00
2019-04-05T04:45:44.782Z,99.90
2019-04-05T04:48:13.673Z,1.00
2019-04-05T04:50:42.957Z,1.00
2019-04-05T04:53:11.983Z,1.00
2019-04-05T04:55:42.519Z,1.00
2019-04-05T04:58:11.427Z,99.90
2019-04-05T05:00:40.320Z,43.40
2019-04-05T05:03:09.252Z,1.00
2019-04-05T05:05:38.236Z,1.00
2019-04-05T05:08:07.058Z,1.00
2019-04-05T05:10:36.030Z,1.00
2019-04-05T05:13:04.827Z,1.00
2019-04-05T05:15:33.603Z,1.00
2019-04-05T05:18:02.646Z,99.90
2019-04-05T05:20:31.628Z,63.10
2019-04-05T05:23:00.686Z,1.00
2019-04-05T05:25:29.501Z,1.00
2019-04-05T05:27:58.486Z,1.00
2019-04-05T05:30:27.312Z,1.00
2019-04-05T05:32:56.301Z,99.90
2019-04-05T05:35:25.177Z,99.90
2019-04-05T05:37:54.122Z,99.90
2019-04-05T05:40:34.128Z,95.10
2019-04-05T05:42:53.508Z,73.30
2019-04-05T05:45:22.432Z,49.80
2019-04-05T05:47:52.524Z,1.00
2019-04-05T05:50:21.453Z,1.00
2019-04-05T05:52:50.844Z,1.00
2019-04-05T05:55:19.681Z,1.00
2019-04-05T05:57:48.766Z,1.00
2019-04-05T06:00:19.426Z,1.00
2019-04-05T06:02:48.697Z,1.00
2019-04-05T06:05:17.589Z,1.00
2019-04-05T06:07:46.359Z,1.00
2019-04-05T06:10:15.362Z,1.00
2019-04-05T06:12:44.153Z,99.90
2019-04-05T06:15:13.075Z,1.00
2019-04-05T06:17:41.896Z,1.00
2019-04-05T06:20:10.771Z,28.50
2019-04-05T06:22:39.515Z,1.00
2019-04-05T06:25:08.671Z,99.90
2019-04-05T06:27:37.506Z,73.80
2019-04-05T06:30:07.944Z,1.00
2019-04-05T06:32:36.700Z,1.00
2019-04-05T06:35:06.522Z,1.00
2019-04-05T06:37:35.272Z,1.00
2019-04-05T06:40:08.478Z,1.00
2019-04-05T06:42:37.213Z,24.70
2019-04-05T06:45:06.250Z,83.80
2019-04-05T06:47:35.074Z,99.20
2019-04-05T06:50:06.247Z,99.40
2019-04-05T06:52:35.042Z,99.90
2019-04-05T06:55:04.652Z,99.90
2019-04-05T06:57:33.435Z,99.90
2019-04-05T07:00:02.263Z,99.90
2019-04-05T07:02:31.082Z,99.90
2019-04-05T07:05:00.090Z,99.90
2019-04-05T07:07:28.888Z,99.90
2019-04-05T07:09:57.662Z,99.90
2019-04-05T07:12:26.406Z,99.90
2019-04-05T07:14:56.298Z,99.90
2019-04-05T07:17:25.323Z,99.90
2019-04-05T07:19:54.157Z,99.90
2019-04-05T07:22:37.086Z,99.90
2019-04-05T07:24:53.539Z,99.90
2019-04-05T07:27:22.332Z,99.90
2019-04-05T07:29:51.107Z,99.90
2019-04-05T07:32:19.896Z,99.90
2019-04-05T07:34:48.636Z,99.90
2019-04-05T07:37:17.384Z,99.90
2019-04-05T07:39:46.405Z,99.90
2019-04-05T07:42:15.194Z,99.90
2019-04-05T07:44:43.950Z,99.90
2019-04-05T07:47:12.755Z,99.90
2019-04-05T07:49:41.620Z,99.90
2019-04-05T07:52:12.884Z,99.90
2019-04-05T07:54:40.958Z,99.90
2019-04-05T07:57:09.754Z,99.90
2019-04-05T07:59:38.586Z,99.90
2019-04-05T08:02:07.375Z,99.90
2019-04-05T08:04:36.150Z,99.90
2019-04-05T08:07:05.334Z,99.90
2019-04-05T08:09:36.623Z,99.90
2019-04-05T08:12:06.542Z,99.90
2019-04-05T08:14:38.008Z,99.90
2019-04-05T08:17:06.967Z,99.90
2019-04-05T08:19:35.853Z,99.90
2019-04-05T08:22:04.653Z,99.90
2019-04-05T08:24:33.531Z,99.90
2019-04-05T08:27:02.360Z,99.90
2019-04-05T08:29:31.215Z,99.90
2019-04-05T08:32:00.077Z,99.90
2019-04-05T08:34:28.933Z,99.90
2019-04-05T08:36:57.687Z,99.90
2019-04-05T08:39:26.484Z,99.90
2019-04-05T08:41:55.255Z,99.90
2019-04-05T08:44:24.046Z,99.90
2019-04-05T08:46:52.852Z,99.90
2019-04-05T08:49:21.581Z,99.90
2019-04-05T08:51:50.376Z,99.90
2019-04-05T08:54:31.515Z,99.90
2019-04-05T08:56:49.653Z,99.90
2019-04-05T08:59:18.510Z,99.90
2019-04-05T09:01:47.361Z,99.90
2019-04-05T09:04:16.177Z,99.90
2019-04-05T09:06:44.960Z,99.90
2019-04-05T09:09:13.771Z,99.90
2019-04-05T09:11:42.605Z,99.90
2019-04-05T09:14:11.367Z,99.90
2019-04-05T09:16:40.405Z,99.90
2019-04-05T09:19:09.197Z,99.90
2019-04-05T09:21:40.388Z,99.90
2019-04-05T09:24:08.541Z,99.90
2019-04-05T09:26:37.365Z,99.90
2019-04-05T09:29:09.009Z,99.90
2019-04-05T09:31:36.726Z,99.90
2019-04-05T09:34:05.564Z,99.90
2019-04-05T09:36:34.351Z,99.90
2019-04-05T09:39:04.968Z,99.90
2019-04-05T09:41:33.813Z,99.90
2019-04-05T09:44:02.707Z,99.90
2019-04-05T09:46:31.487Z,99.90
2019-04-05T09:49:00.304Z,99.90
2019-04-05T09:51:29.138Z,99.90
2019-04-05T09:53:58.059Z,99.90
2019-04-05T09:56:26.925Z,99.90
2019-04-05T09:58:55.694Z,99.90
2019-04-05T10:01:24.478Z,99.90
2019-04-05T10:03:53.367Z,99.90
2019-04-05T10:06:22.224Z,99.90
2019-04-05T10:08:51.014Z,99.90
2019-04-05T10:11:19.830Z,99.90
2019-04-05T10:13:48.598Z,99.90
2019-04-05T10:16:17.410Z,99.90
2019-04-05T10:18:46.268Z,99.90
2019-04-05T10:21:15.087Z,99.90
2019-04-05T10:23:43.847Z,99.90
2019-04-05T10:26:12.641Z,99.90
2019-04-05T10:28:41.483Z,99.90
2019-04-05T10:31:10.331Z,99.90
2019-04-05T10:33:39.156Z,99.90
2019-04-05T10:36:09.462Z,99.90
2019-04-05T10:38:38.305Z,99.90
2019-04-05T10:41:07.080Z,99.90
2019-04-05T10:43:35.844Z,99.90
2019-04-05T10:46:05.538Z,99.90
2019-04-05T10:48:35.480Z,99.90
2019-04-05T10:51:04.706Z,99.90
2019-04-05T10:53:33.561Z,99.90
2019-04-05T10:56:02.433Z,99.90
2019-04-05T10:58:31.215Z,99.90
2019-04-05T11:01:00.025Z,99.90
2019-04-05T11:03:29.042Z,99.90
2019-04-05T11:05:57.868Z,99.90
2019-04-05T11:08:26.652Z,99.90
2019-04-05T11:10:55.494Z,99.90
2019-04-05T11:13:24.286Z,99.90
2019-04-05T11:15:53.154Z,99.90
2019-04-05T11:18:21.921Z,99.90
2019-04-05T11:20:50.703Z,99.90
2019-04-05T11:23:21.415Z,99.90
2019-04-05T11:25:49.980Z,99.90
2019-04-05T11:28:18.762Z,99.90
2019-04-05T11:30:47.786Z,99.90
2019-04-05T11:33:19.575Z,99.90
2019-04-05T11:35:47.107Z,99.90
2019-04-05T11:38:15.964Z,99.90
2019-04-05T11:40:46.014Z,99.90
2019-04-05T11:43:16.208Z,99.90
2019-04-05T11:45:45.430Z,99.90
2019-04-05T11:48:14.374Z,99.90
2019-04-05T11:50:43.177Z,99.90
2019-04-05T11:53:12.029Z,99.90
2019-04-05T11:55:40.896Z,99.90
2019-04-05T11:58:09.737Z,99.90
2019-04-05T12:00:40.121Z,99.90
2019-04-05T12:03:10.588Z,99.90
2019-04-05T12:05:39.401Z,99.90
2019-04-05T12:08:08.179Z,99.90
2019-04-05T12:10:37.694Z,99.90
2019-04-05T12:13:06.444Z,99.90
2019-04-05T12:15:35.700Z,99.90
2019-04-05T12:18:05.468Z,99.90
2019-04-05T12:20:47.346Z,99.90
2019-04-05T12:23:04.454Z,99.90
2019-04-05T12:25:33.673Z,99.90
2019-04-05T12:28:06.846Z,99.90
2019-04-05T12:30:33.218Z,99.90
2019-04-05T12:33:13.201Z,99.90
2019-04-05T12:35:32.063Z,99.90
2019-04-05T12:38:00.544Z,99.90
2019-04-05T12:40:29.179Z,99.90
2019-04-05T12:42:57.732Z,99.90
2019-04-05T12:45:26.191Z,99.90
2019-04-05T12:47:54.705Z,99.90
2019-04-05T12:50:23.325Z,99.90
2019-04-05T12:52:51.789Z,99.90
2019-04-05T12:55:23.845Z,99.90
2019-04-05T12:57:50.631Z,99.90
2019-04-05T13:00:19.865Z,99.90
2019-04-05T13:02:50.475Z,99.90
2019-04-05T13:05:21.284Z,99.90
2019-04-05T13:07:50.716Z,99.90
2019-04-05T13:10:19.202Z,99.90
2019-04-05T13:12:47.732Z,99.90
2019-04-05T13:15:17.345Z,99.90
2019-04-05T13:17:46.052Z,99.90
2019-04-05T13:20:14.829Z,99.90
2019-04-05T13:22:43.305Z,99.90
2019-04-05T13:25:11.818Z,99.90
2019-04-05T13:27:41.635Z,99.90
2019-04-05T13:30:11.065Z,99.90
2019-04-05T13:32:39.596Z,99.90
2019-04-05T13:35:08.548Z,99.90
2019-04-05T13:37:37.107Z,99.90
2019-04-05T13:40:06.946Z,99.30
2019-04-05T13:42:35.666Z,1.00
2019-04-05T13:45:07.633Z,1.00
2019-04-05T13:47:38.844Z,1.00
2019-04-05T13:50:11.245Z,1.00
2019-04-05T13:52:41.183Z,1.00
2019-04-05T13:55:11.315Z,1.00
2019-04-05T13:57:40.922Z,1.00
2019-04-05T14:00:10.436Z,1.00
2019-04-05T14:02:38.970Z,1.00
2019-04-05T14:05:07.492Z,1.00
2019-04-05T14:07:35.956Z,1.00
2019-04-05T14:10:10.493Z,1.00
2019-04-05T14:12:37.663Z,1.00
2019-04-05T14:15:10.706Z,1.00
2019-04-05T14:17:38.049Z,1.00
2019-04-05T14:20:09.065Z,99.90
2019-04-05T14:22:37.307Z,99.90
2019-04-05T14:25:07.659Z,99.90
2019-04-05T14:27:36.126Z,99.90
2019-04-05T14:30:06.207Z,99.90
2019-04-05T14:32:35.034Z,99.90
2019-04-05T14:35:07.496Z,99.90
2019-04-05T14:37:34.919Z,99.90
2019-04-05T14:40:04.754Z,99.90
2019-04-05T14:42:33.250Z,99.90
2019-04-05T14:45:08.136Z,99.90
2019-04-05T14:47:36.657Z,99.90
2019-04-05T14:50:09.497Z,99.90
2019-04-05T14:52:38.086Z,99.90
2019-04-05T14:55:06.888Z,99.90
2019-04-05T14:57:36.542Z,99.90
2019-04-05T15:00:08.809Z,99.90
2019-04-05T15:02:37.514Z,99.90
2019-04-05T15:05:07.307Z,99.90
2019-04-05T15:07:37.756Z,99.90
2019-04-05T15:10:06.400Z,99.90
2019-04-05T15:12:34.871Z,99.90
2019-04-05T15:15:04.263Z,99.90
2019-04-05T15:17:46.645Z,99.90
2019-04-05T15:20:06.759Z,99.90
2019-04-05T15:22:35.311Z,99.90
2019-04-05T15:25:07.813Z,99.90
2019-04-05T15:27:36.607Z,99.90
2019-04-05T15:30:06.897Z,99.90
2019-04-05T15:32:37.392Z,99.90
2019-04-05T15:35:07.749Z,99.90
2019-04-05T15:37:37.666Z,99.90
2019-04-05T15:40:07.741Z,99.90
2019-04-05T15:42:36.501Z,99.90
2019-04-05T15:45:09.286Z,99.90
2019-04-05T15:47:37.989Z,99.90
2019-04-05T15:50:07.508Z,99.90
2019-04-05T15:52:36.190Z,99.90
2019-04-05T15:55:06.644Z,99.90
2019-04-05T15:57:35.157Z,99.90
2019-04-05T16:00:07.051Z,99.90
2019-04-05T16:02:35.636Z,99.90
2019-04-05T16:05:05.641Z,99.90
2019-04-05T16:07:34.106Z,99.90
2019-04-05T16:10:02.904Z,99.90
2019-04-05T16:12:31.462Z,99.90
2019-04-05T16:15:00.016Z,99.90
2019-04-05T16:17:28.524Z,99.90
2019-04-05T16:19:57.260Z,99.90
2019-04-05T16:22:31.205Z,99.90
2019-04-05T16:24:56.037Z,99.90
2019-04-05T16:27:24.831Z,99.90
2019-04-05T16:29:53.334Z,99.90
2019-04-05T16:32:21.912Z,99.90
2019-04-05T16:34:50.463Z,99.90
2019-04-05T16:37:19.034Z,99.90
2019-04-05T16:39:47.495Z,99.90
2019-04-05T16:42:16.026Z,99.90
2019-04-05T16:44:44.791Z,99.90
2019-04-05T16:47:13.354Z,99.90
2019-04-05T16:49:41.934Z,99.90
2019-04-05T16:52:10.514Z,99.90
2019-04-05T16:54:39.286Z,99.90
2019-04-05T16:57:07.787Z,99.90
2019-04-05T16:59:36.286Z,99.90
2019-04-05T17:02:04.786Z,99.90
2019-04-05T17:04:33.366Z,99.90
2019-04-05T17:07:01.878Z,99.90
2019-04-05T17:09:30.457Z,99.90
2019-04-05T17:11:59.249Z,99.90
2019-04-05T17:14:27.791Z,99.90
2019-04-05T17:16:56.275Z,99.90
2019-04-05T17:19:24.822Z,99.90
2019-04-05T17:21:53.292Z,99.90
2019-04-05T17:24:21.779Z,99.90
2019-04-05T17:26:50.545Z,99.90
2019-04-05T17:29:19.101Z,99.90
2019-04-05T17:31:47.606Z,99.90
2019-04-05T17:34:16.411Z,99.90
2019-04-05T17:36:45.257Z,99.90
2019-04-05T17:39:13.726Z,99.90
2019-04-05T17:41:42.594Z,99.90
2019-04-05T17:44:11.086Z,99.90
2019-04-05T17:46:39.908Z,99.90
2019-04-05T17:49:08.447Z,99.90
2019-04-05T17:51:37.250Z,99.90
2019-04-05T17:54:05.835Z,99.90
2019-04-05T17:56:34.522Z,99.90
2019-04-05T17:59:03.573Z,99.90
2019-04-05T18:01:32.460Z,99.90
2019-04-05T18:04:01.238Z,99.90
2019-04-05T18:06:30.043Z,99.90
2019-04-05T18:08:58.891Z,99.90
2019-04-05T18:11:27.699Z,99.90
2019-04-05T18:13:56.523Z,99.90
2019-04-05T18:16:25.350Z,99.90
2019-04-05T18:18:54.302Z,99.90
2019-04-05T18:21:23.439Z,99.90
2019-04-05T18:23:52.275Z,99.90
2019-04-05T18:26:21.198Z,99.90
2019-04-05T18:28:50.032Z,99.90
2019-04-05T18:31:18.851Z,99.90
2019-04-05T18:33:47.616Z,99.90
2019-04-05T18:36:16.601Z,99.90
2019-04-05T18:38:45.385Z,99.90
2019-04-05T18:41:14.170Z,99.90
2019-04-05T18:43:42.923Z,99.90
2019-04-05T18:46:11.877Z,99.90
2019-04-05T18:48:40.718Z,99.90
2019-04-05T18:51:09.537Z,99.90
2019-04-05T18:53:38.367Z,99.90
2019-04-05T18:56:07.116Z,99.90
2019-04-05T18:58:35.910Z,99.90
2019-04-05T19:01:05.096Z,99.90
2019-04-05T19:03:34.098Z,99.90
2019-04-05T19:06:02.861Z,99.90
2019-04-05T19:08:39.403Z,99.90
2019-04-05T19:11:02.425Z,99.90
2019-04-05T19:13:31.219Z,99.90
2019-04-05T19:15:59.963Z,99.90
2019-04-05T19:18:29.080Z,99.90
2019-04-05T19:20:58.003Z,99.90
2019-04-05T19:23:26.797Z,99.90
2019-04-05T19:25:55.579Z,99.90
2019-04-05T19:28:24.315Z,99.90
2019-04-05T19:50:55.295Z,99.90
2019-04-05T19:53:24.734Z,99.90
2019-04-05T19:55:53.508Z,99.90
2019-04-05T19:58:22.288Z,99.90
2019-04-05T20:00:51.028Z,99.90
2019-04-05T20:03:19.928Z,99.90
2019-04-05T20:05:48.755Z,99.90
2019-04-05T20:08:17.597Z,99.90
2019-04-05T20:10:46.811Z,99.90
2019-04-05T20:13:15.614Z,99.90
2019-04-05T20:15:44.622Z,99.90
2019-04-05T20:18:13.670Z,99.90
2019-04-05T20:20:43.896Z,99.90
2019-04-05T20:23:12.817Z,99.90
2019-04-05T20:25:41.643Z,99.90
2019-04-05T20:28:10.558Z,99.90
2019-04-05T20:30:39.912Z,99.90
2019-04-05T20:33:08.744Z,99.90
2019-04-05T20:35:37.549Z,99.90
2019-04-05T20:38:06.548Z,99.90
2019-04-05T20:40:35.471Z,99.90
2019-04-05T20:43:04.333Z,99.90
2019-04-05T20:45:33.446Z,99.90
2019-04-05T20:48:02.282Z,99.90
2019-04-05T20:50:31.044Z,99.90
2019-04-05T20:52:59.893Z,99.90
2019-04-05T20:55:28.668Z,99.90
2019-04-05T20:57:57.489Z,99.90
2019-04-05T21:00:26.252Z,99.90
2019-04-05T21:02:55.015Z,99.90
2019-04-05T21:05:25.656Z,99.90
2019-04-05T21:07:54.294Z,99.90
2019-04-05T21:10:23.153Z,99.90
2019-04-05T21:12:52.030Z,99.90
2019-04-05T21:15:20.970Z,99.90
2019-04-05T21:17:49.808Z,99.90
2019-04-05T21:20:18.576Z,99.90
2019-04-05T21:22:47.380Z,99.90
2019-04-05T21:25:16.216Z,99.90
2019-04-05T21:27:45.054Z,99.90
2019-04-05T21:30:14.493Z,99.90
2019-04-05T21:32:43.564Z,99.90
2019-04-05T21:35:12.446Z,99.90
2019-04-05T21:37:41.284Z,99.90
2019-04-05T21:40:10.126Z,99.90
2019-04-05T21:42:38.916Z,99.90
2019-04-05T21:45:08.052Z,99.90
2019-04-05T21:47:36.869Z,99.90
2019-04-05T21:50:09.046Z,99.90
2019-04-05T21:52:37.823Z,99.90
2019-04-05T21:55:07.502Z,99.90
2019-04-05T21:57:36.266Z,99.90
2019-04-05T22:00:08.109Z,99.90
2019-04-05T22:02:36.904Z,99.90
2019-04-05T22:05:07.129Z,99.90
2019-04-05T22:07:35.951Z,99.90
2019-04-05T22:10:06.404Z,99.90
2019-04-05T22:12:35.270Z,99.90
2019-04-05T22:15:04.704Z,99.90
2019-04-05T22:17:33.456Z,99.90
2019-04-05T22:20:02.238Z,99.90
2019-04-05T22:22:31.249Z,99.90
2019-04-05T22:25:00.069Z,99.90
2019-04-05T22:27:28.951Z,99.90
2019-04-05T22:29:57.760Z,99.90
2019-04-05T22:32:26.504Z,99.90
2019-04-05T22:34:55.259Z,99.90
2019-04-05T22:37:24.067Z,99.90
2019-04-05T22:39:52.869Z,99.90
2019-04-05T22:42:21.616Z,99.90
2019-04-05T22:44:50.404Z,99.90
2019-04-05T22:47:19.353Z,99.90
2019-04-05T22:49:48.123Z,99.90
2019-04-05T22:52:16.909Z,99.90
2019-04-05T22:54:45.698Z,99.90
2019-04-05T22:57:14.560Z,99.90
2019-04-05T22:59:43.345Z,99.90
2019-04-05T23:02:12.188Z,99.90
2019-04-05T23:04:41.042Z,99.90
2019-04-05T23:07:09.814Z,99.90
2019-04-05T23:09:38.622Z,99.90
2019-04-05T23:12:07.536Z,99.90
2019-04-05T23:14:36.317Z,99.90
2019-04-05T23:17:05.111Z,99.90
2019-04-05T23:19:33.932Z,99.90
2019-04-05T23:22:03.014Z,99.90
2019-04-05T23:24:31.857Z,99.90
2019-04-05T23:27:00.939Z,99.90
2019-04-05T23:29:29.754Z,99.90
2019-04-05T23:31:58.493Z,99.90
2019-04-05T23:34:27.277Z,99.90
2019-04-05T23:36:56.060Z,99.90
2019-04-05T23:39:24.834Z,99.90
2019-04-05T23:41:53.629Z,99.90
2019-04-05T23:44:22.485Z,99.90
2019-04-05T23:46:52.675Z,99.90
2019-04-05T23:49:21.596Z,99.90
2019-04-05T23:51:50.380Z,99.90
2019-04-05T23:54:19.184Z,99.90
2019-04-05T23:56:47.940Z,99.90
2019-04-05T23:59:16.704Z,99.90
